createdAt,value
2019-05-10T00:00:02.967Z,14.77
2019-05-10T00:02:49.163Z,9.35
2019-05-10T00:05:34.719Z,12.63
2019-05-10T00:08:20.934Z,17.60
2019-05-10T00:10:50.429Z,12.13
2019-05-10T00:13:22.898Z,13.95
2019-05-10T00:15:50.988Z,11.02
2019-05-10T00:18:19.266Z,18.10
2019-05-10T00:20:47.347Z,13.82
2019-05-10T00:23:15.205Z,12.45
2019-05-10T00:25:43.255Z,20.95
2019-05-10T00:28:11.135Z,11.88
2019-05-10T00:30:39.550Z,17.37
2019-05-10T00:33:07.384Z,14.75
2019-05-10T00:35:35.226Z,16.12
2019-05-10T00:38:03.892Z,18.87
2019-05-10T00:40:31.706Z,27.33
2019-05-10T00:42:59.871Z,19.60
2019-05-10T00:45:27.959Z,20.25
2019-05-10T00:47:55.991Z,19.37
2019-05-10T00:50:24.084Z,19.08
2019-05-10T00:52:52.214Z,23.27
2019-05-10T00:55:20.314Z,22.23
2019-05-10T00:57:48.388Z,19.90
2019-05-10T01:00:16.896Z,19.42
2019-05-10T01:02:44.732Z,22.30
2019-05-10T01:05:12.556Z,17.37
2019-05-10T01:07:40.788Z,16.83
2019-05-10T01:10:08.931Z,19.45
2019-05-10T01:12:37.005Z,13.02
2019-05-10T01:15:06.511Z,12.77
2019-05-10T01:17:34.481Z,12.93
2019-05-10T01:20:02.594Z,11.73
2019-05-10T01:22:30.746Z,12.02
2019-05-10T01:24:58.913Z,10.27
2019-05-10T01:27:27.020Z,13.62
2019-05-10T01:29:56.036Z,9.73
2019-05-10T01:32:23.941Z,8.25
2019-05-10T01:34:52.333Z,7.07
2019-05-10T01:37:21.534Z,7.20
2019-05-10T01:39:49.947Z,7.47
2019-05-10T01:42:17.611Z,9.02
2019-05-10T01:44:47.202Z,6.90
2019-05-10T01:47:17.205Z,9.85
2019-05-10T01:49:45.067Z,9.40
2019-05-10T01:52:13.695Z,7.35
2019-05-10T01:54:41.230Z,10.23
2019-05-10T01:57:09.366Z,9.45
2019-05-10T01:59:37.976Z,8.77
2019-05-10T02:02:06.145Z,10.15
2019-05-10T02:04:34.292Z,9.60
2019-05-10T02:07:02.572Z,9.35
2019-05-10T02:09:33.291Z,12.30
2019-05-10T02:11:58.936Z,11.02
2019-05-10T02:14:27.511Z,11.00
2019-05-10T02:16:55.815Z,12.70
2019-05-10T02:19:23.856Z,12.52
2019-05-10T02:21:51.735Z,11.20
2019-05-10T02:24:19.856Z,13.82
2019-05-10T02:26:47.980Z,13.43
2019-05-10T02:29:16.344Z,11.50
2019-05-10T02:31:44.202Z,17.12
2019-05-10T02:34:12.070Z,11.32
2019-05-10T02:36:40.551Z,17.62
2019-05-10T02:39:09.089Z,16.85
2019-05-10T02:41:37.522Z,14.75
2019-05-10T02:44:06.248Z,17.58
2019-05-10T02:46:35.033Z,14.05
2019-05-10T02:49:03.339Z,15.60
2019-05-10T02:51:31.710Z,14.10
2019-05-10T02:53:59.855Z,11.73
2019-05-10T02:56:30.832Z,12.90
2019-05-10T02:58:56.268Z,16.27
2019-05-10T03:01:24.671Z,13.95
2019-05-10T03:03:52.914Z,9.85
2019-05-10T03:06:20.898Z,10.90
2019-05-10T03:08:49.123Z,11.15
2019-05-10T03:11:17.136Z,11.90
2019-05-10T03:13:46.562Z,15.75
2019-05-10T03:16:14.625Z,12.32
2019-05-10T03:18:43.308Z,13.43
2019-05-10T03:21:11.402Z,10.43
2019-05-10T03:23:39.551Z,13.43
2019-05-10T03:26:07.021Z,13.85
2019-05-10T03:28:35.177Z,11.20
2019-05-10T03:31:03.262Z,10.07
2019-05-10T03:33:31.331Z,11.80
2019-05-10T03:35:59.581Z,12.98
2019-05-10T03:38:27.703Z,11.32
2019-05-10T03:40:55.880Z,12.68
2019-05-10T03:43:24.063Z,10.07
2019-05-10T03:45:52.293Z,13.23
2019-05-10T03:48:20.397Z,13.80
2019-05-10T03:50:48.473Z,12.70
2019-05-10T03:53:17.095Z,14.07
2019-05-10T03:55:45.175Z,17.05
2019-05-10T03:58:12.972Z,13.27
2019-05-10T04:00:41.129Z,15.57
2019-05-10T04:03:09.107Z,16.00
2019-05-10T04:05:37.274Z,11.43
2019-05-10T04:08:05.357Z,13.45
2019-05-10T04:10:33.223Z,10.57
2019-05-10T04:13:01.824Z,12.23
2019-05-10T04:15:29.981Z,11.00
2019-05-10T04:17:58.075Z,11.90
2019-05-10T04:20:27.274Z,12.70
2019-05-10T04:22:55.424Z,11.55
2019-05-10T04:25:23.633Z,11.52
2019-05-10T04:27:51.785Z,9.45
2019-05-10T04:30:19.857Z,7.78
2019-05-10T04:32:47.617Z,8.15
2019-05-10T04:35:15.802Z,14.00
2019-05-10T04:37:43.647Z,6.35
2019-05-10T04:40:12.237Z,9.32
2019-05-10T04:42:40.314Z,7.97
2019-05-10T04:45:08.357Z,7.55
2019-05-10T04:47:36.126Z,9.85
2019-05-10T04:50:04.005Z,9.38
2019-05-10T04:52:32.344Z,6.03
2019-05-10T04:55:00.433Z,7.57
2019-05-10T04:57:28.784Z,5.37
2019-05-10T04:59:57.598Z,6.57
2019-05-10T05:02:25.790Z,8.77
2019-05-10T05:04:53.342Z,5.53
2019-05-10T05:07:21.434Z,6.45
2019-05-10T05:09:49.480Z,5.50
2019-05-10T05:12:18.067Z,7.47
2019-05-10T05:14:46.796Z,6.57
2019-05-10T05:17:14.928Z,7.10
2019-05-10T05:19:43.113Z,8.43
2019-05-10T05:22:11.388Z,6.70
2019-05-10T05:24:39.967Z,8.00
2019-05-10T05:27:08.057Z,5.72
2019-05-10T05:29:36.099Z,5.30
2019-05-10T05:32:04.664Z,8.80
2019-05-10T05:34:32.802Z,5.18
2019-05-10T05:37:00.952Z,7.53
2019-05-10T05:39:29.026Z,8.45
2019-05-10T05:41:57.364Z,8.60
2019-05-10T05:44:26.139Z,9.10
2019-05-10T05:46:53.213Z,3.90
2019-05-10T05:49:21.346Z,8.00
2019-05-10T05:51:49.174Z,5.10
2019-05-10T05:54:20.895Z,7.30
2019-05-10T05:56:50.498Z,6.32
2019-05-10T05:59:17.449Z,5.80
2019-05-10T06:01:40.834Z,6.40
2019-05-10T06:04:12.527Z,7.28
2019-05-10T06:06:38.024Z,6.12
2019-05-10T06:09:06.775Z,5.57
2019-05-10T06:11:35.797Z,8.23
2019-05-10T06:14:10.779Z,5.28
2019-05-10T06:16:31.427Z,6.07
2019-05-10T06:18:59.267Z,8.02
2019-05-10T06:21:27.038Z,7.32
2019-05-10T06:23:58.918Z,8.10
2019-05-10T06:26:28.394Z,5.03
2019-05-10T06:28:59.652Z,7.50
2019-05-10T06:31:20.246Z,7.70
2019-05-10T06:33:48.892Z,5.15
2019-05-10T06:36:17.029Z,7.28
2019-05-10T06:38:45.065Z,3.87
2019-05-10T06:41:16.961Z,8.88
2019-05-10T06:43:40.586Z,4.62
2019-05-10T06:46:08.693Z,6.30
2019-05-10T06:48:36.564Z,6.62
2019-05-10T06:51:09.333Z,3.62
2019-05-10T06:53:32.238Z,5.28
2019-05-10T06:56:00.242Z,6.75
2019-05-10T06:58:30.467Z,6.85
2019-05-10T07:00:55.872Z,7.30
2019-05-10T07:03:24.084Z,5.25
2019-05-10T07:05:51.807Z,10.57
2019-05-10T07:08:20.576Z,9.77
2019-05-10T07:10:47.389Z,7.22
2019-05-10T07:13:15.197Z,3.87
2019-05-10T07:15:44.856Z,5.40
2019-05-10T07:18:11.261Z,5.75
2019-05-10T07:20:42.607Z,4.32
2019-05-10T07:23:07.978Z,5.22
2019-05-10T07:25:37.765Z,4.80
2019-05-10T07:28:03.943Z,4.72
2019-05-10T07:30:33.052Z,3.80
2019-05-10T07:33:02.072Z,8.63
2019-05-10T07:35:30.968Z,3.90
2019-05-10T07:37:57.531Z,5.65
2019-05-10T07:40:25.847Z,4.72
2019-05-10T07:42:53.923Z,2.87
2019-05-10T07:45:25.608Z,4.10
2019-05-10T07:47:50.659Z,12.43
2019-05-10T07:50:18.441Z,8.32
2019-05-10T07:52:46.505Z,2.92
2019-05-10T07:55:18.013Z,4.53
2019-05-10T07:57:42.757Z,4.72
2019-05-10T08:00:10.822Z,6.57
2019-05-10T08:02:38.696Z,4.62
2019-05-10T08:05:10.874Z,6.55
2019-05-10T08:07:34.314Z,3.78
2019-05-10T08:10:04.753Z,6.15
2019-05-10T08:12:35.214Z,4.30
2019-05-10T08:14:59.072Z,4.90
2019-05-10T08:17:28.707Z,3.95
2019-05-10T08:19:55.591Z,3.37
2019-05-10T08:22:23.460Z,7.47
2019-05-10T08:24:55.056Z,3.95
2019-05-10T08:27:22.768Z,3.40
2019-05-10T08:29:52.878Z,5.65
2019-05-10T08:32:19.246Z,4.62
2019-05-10T08:34:52.191Z,3.10
2019-05-10T08:37:12.943Z,2.60
2019-05-10T08:39:45.657Z,3.37
2019-05-10T08:42:27.600Z,2.87
2019-05-10T08:44:37.018Z,2.92
2019-05-10T08:47:07.580Z,3.35
2019-05-10T08:49:44.203Z,5.53
2019-05-10T08:52:02.883Z,3.33
2019-05-10T08:54:29.243Z,5.00
2019-05-10T08:57:01.194Z,3.35
2019-05-10T08:59:26.778Z,3.28
2019-05-10T09:01:53.762Z,3.70
2019-05-10T09:04:22.217Z,3.67
2019-05-10T09:06:55.597Z,2.47
2019-05-10T09:09:16.966Z,2.92
2019-05-10T09:11:45.088Z,3.15
2019-05-10T09:14:19.757Z,3.67
2019-05-10T09:16:44.760Z,4.60
2019-05-10T09:19:09.103Z,7.12
2019-05-10T09:21:41.266Z,4.72
2019-05-10T09:24:06.567Z,3.40
2019-05-10T09:26:33.818Z,2.22
2019-05-10T09:29:01.939Z,2.95
2019-05-10T09:31:32.520Z,2.85
2019-05-10T09:33:58.058Z,3.45
2019-05-10T09:36:31.321Z,3.37
2019-05-10T09:38:54.197Z,3.90
2019-05-10T09:41:22.724Z,3.30
2019-05-10T09:43:50.640Z,3.78
2019-05-10T09:46:18.348Z,4.05
2019-05-10T09:48:46.370Z,3.25
2019-05-10T09:51:19.241Z,9.30
2019-05-10T09:53:42.629Z,6.78
2019-05-10T09:56:10.699Z,5.15
2019-05-10T09:58:38.881Z,6.30
2019-05-10T10:01:14.882Z,4.15
2019-05-10T10:03:42.338Z,3.95
2019-05-10T10:06:07.709Z,4.12
2019-05-10T10:08:30.717Z,4.20
2019-05-10T10:11:09.818Z,3.70
2019-05-10T10:13:39.528Z,5.15
2019-05-10T10:15:54.847Z,5.22
2019-05-10T10:18:25.396Z,4.57
2019-05-10T10:20:50.707Z,4.28
2019-05-10T10:23:18.796Z,4.43
2019-05-10T10:25:48.362Z,3.55
2019-05-10T10:28:19.992Z,4.03
2019-05-10T10:30:43.779Z,4.40
2019-05-10T10:33:15.994Z,2.58
2019-05-10T10:35:39.626Z,2.50
2019-05-10T10:38:09.449Z,4.28
2019-05-10T10:40:44.044Z,3.78
2019-05-10T10:43:07.424Z,4.50
2019-05-10T10:45:33.578Z,4.57
2019-05-10T10:48:02.404Z,7.30
2019-05-10T10:50:29.831Z,3.22
2019-05-10T10:52:57.754Z,4.70
2019-05-10T10:55:30.526Z,3.20
2019-05-10T10:57:53.842Z,3.83
2019-05-10T11:00:31.442Z,4.30
2019-05-10T11:02:59.570Z,8.68
2019-05-10T11:05:27.660Z,6.65
2019-05-10T11:07:55.926Z,5.03
2019-05-10T11:10:25.439Z,6.57
2019-05-10T11:12:56.246Z,6.20
2019-05-10T11:15:23.173Z,5.05
2019-05-10T11:17:50.574Z,4.47
2019-05-10T11:20:17.611Z,3.70
2019-05-10T11:22:49.597Z,4.60
2019-05-10T11:25:14.224Z,4.03
2019-05-10T11:27:42.433Z,6.80
2019-05-10T11:30:12.170Z,5.15
2019-05-10T11:32:41.621Z,9.18
2019-05-10T11:35:11.915Z,8.00
2019-05-10T11:37:36.513Z,10.57
2019-05-10T11:40:03.922Z,4.97
2019-05-10T11:42:31.708Z,5.30
2019-05-10T11:45:00.845Z,5.60
2019-05-10T11:47:31.099Z,8.27
2019-05-10T11:49:57.514Z,4.03
2019-05-10T11:52:29.058Z,8.32
2019-05-10T11:54:53.069Z,5.03
2019-05-10T11:57:21.916Z,7.32
2019-05-10T11:59:51.581Z,6.70
2019-05-10T12:02:37.120Z,8.52
2019-05-10T12:04:44.973Z,6.20
2019-05-10T12:07:13.304Z,6.05
2019-05-10T12:09:42.583Z,4.03
2019-05-10T12:12:12.241Z,7.00
2019-05-10T12:14:37.676Z,9.60
2019-05-10T12:17:06.591Z,8.77
2019-05-10T12:19:47.632Z,6.10
2019-05-10T12:22:04.578Z,7.17
2019-05-10T12:24:46.279Z,9.25
2019-05-10T12:27:21.996Z,9.60
2019-05-10T12:29:26.285Z,5.47
2019-05-10T12:31:57.021Z,9.30
2019-05-10T12:34:22.967Z,5.93
2019-05-10T12:36:51.998Z,6.40
2019-05-10T12:39:21.300Z,6.93
2019-05-10T12:41:49.821Z,6.72
2019-05-10T12:44:14.715Z,8.23
2019-05-10T12:46:42.517Z,8.90
2019-05-10T12:49:11.958Z,5.22
2019-05-10T12:51:40.925Z,7.40
2019-05-10T12:54:06.888Z,4.90
2019-05-10T12:56:43.837Z,5.75
2019-05-10T12:59:03.024Z,7.40
2019-05-10T13:01:32.143Z,9.40
2019-05-10T13:04:01.789Z,9.45
2019-05-10T13:06:27.265Z,7.62
2019-05-10T13:08:55.437Z,8.02
2019-05-10T13:11:25.594Z,10.77
2019-05-10T13:13:51.936Z,9.43
2019-05-10T13:16:20.050Z,8.00
2019-05-10T13:18:51.754Z,4.95
2019-05-10T13:21:21.049Z,8.90
2019-05-10T13:23:43.754Z,7.55
2019-05-10T13:26:11.548Z,14.25
2019-05-10T13:28:39.724Z,9.75
2019-05-10T13:31:07.864Z,8.88
2019-05-10T13:33:41.802Z,7.68
2019-05-10T13:36:04.689Z,11.73
2019-05-10T13:38:36.815Z,12.18
2019-05-10T13:41:00.756Z,9.15
2019-05-10T13:43:28.855Z,10.77
2019-05-10T13:45:56.923Z,8.25
2019-05-10T13:48:26.443Z,10.52
2019-05-10T13:50:53.699Z,9.10
2019-05-10T13:53:23.207Z,7.82
2019-05-10T13:55:49.584Z,7.37
2019-05-10T13:58:17.970Z,12.85
2019-05-10T14:00:46.240Z,10.45
2019-05-10T14:03:14.330Z,7.72
2019-05-10T14:05:42.183Z,5.85
2019-05-10T14:08:10.294Z,5.82
2019-05-10T14:10:38.676Z,4.35
2019-05-10T14:13:07.123Z,5.87
2019-05-10T14:15:35.157Z,7.75
2019-05-10T14:18:03.291Z,7.43
2019-05-10T14:20:31.349Z,8.13
2019-05-10T14:22:59.418Z,7.95
2019-05-10T14:25:29.642Z,6.90
2019-05-10T14:27:55.351Z,6.18
2019-05-10T14:30:23.537Z,6.70
2019-05-10T14:32:51.597Z,5.75
2019-05-10T14:35:22.302Z,6.87
2019-05-10T14:37:48.436Z,6.28
2019-05-10T14:40:16.813Z,5.93
2019-05-10T14:42:44.203Z,7.72
2019-05-10T14:45:12.241Z,8.85
2019-05-10T14:47:47.846Z,7.50
2019-05-10T14:50:08.711Z,6.57
2019-05-10T14:52:36.799Z,7.40
2019-05-10T14:55:04.781Z,8.38
2019-05-10T14:57:32.806Z,7.28
2019-05-10T15:00:00.885Z,7.07
2019-05-10T15:02:28.762Z,7.15
2019-05-10T15:05:00.749Z,8.10
2019-05-10T15:07:24.913Z,6.60
2019-05-10T15:09:54.335Z,5.60
2019-05-10T15:12:22.772Z,4.82
2019-05-10T15:14:49.703Z,7.03
2019-05-10T15:17:19.844Z,3.85
2019-05-10T15:19:55.893Z,5.37
2019-05-10T15:22:18.548Z,6.85
2019-05-10T15:24:43.434Z,4.15
2019-05-10T15:27:16.105Z,7.10
2019-05-10T15:29:40.606Z,6.15
2019-05-10T15:32:08.687Z,6.05
2019-05-10T15:34:36.806Z,5.57
2019-05-10T15:37:09.238Z,6.30
2019-05-10T15:39:35.294Z,6.60
2019-05-10T15:42:03.918Z,6.62
2019-05-10T15:44:33.669Z,4.55
2019-05-10T15:46:59.800Z,7.47
2019-05-10T15:49:27.958Z,6.20
2019-05-10T15:52:15.175Z,5.00
2019-05-10T15:54:24.104Z,7.53
2019-05-10T15:56:55.404Z,7.50
2019-05-10T15:59:21.324Z,6.87
2019-05-10T16:01:47.913Z,4.22
2019-05-10T16:04:15.976Z,7.65
2019-05-10T16:06:44.053Z,7.45
2019-05-10T16:09:17.433Z,7.65
2019-05-10T16:11:40.908Z,8.27
2019-05-10T16:14:09.074Z,5.65
2019-05-10T16:16:39.678Z,4.30
2019-05-10T16:19:05.526Z,8.75
2019-05-10T16:21:33.582Z,7.70
2019-05-10T16:24:01.789Z,7.95
2019-05-10T16:26:29.911Z,6.15
2019-05-10T16:29:01.712Z,5.90
2019-05-10T16:31:25.779Z,7.55
2019-05-10T16:33:55.756Z,5.05
2019-05-10T16:36:23.140Z,7.07
2019-05-10T16:38:51.006Z,10.13
2019-05-10T16:41:19.907Z,5.37
2019-05-10T16:43:51.662Z,5.47
2019-05-10T16:46:16.058Z,5.68
2019-05-10T16:48:44.455Z,5.60
2019-05-10T16:51:12.956Z,7.40
2019-05-10T16:53:43.889Z,6.75
2019-05-10T16:56:13.409Z,7.62
2019-05-10T16:58:37.642Z,6.85
2019-05-10T17:01:05.722Z,5.53
2019-05-10T17:03:33.713Z,6.35
2019-05-10T17:06:04.054Z,9.70
2019-05-10T17:08:30.804Z,5.50
2019-05-10T17:10:57.486Z,6.55
2019-05-10T17:13:25.582Z,10.55
2019-05-10T17:15:53.757Z,8.43
2019-05-10T17:18:24.006Z,5.43
2019-05-10T17:20:50.929Z,8.68
2019-05-10T17:23:18.134Z,8.13
2019-05-10T17:25:46.244Z,6.18
2019-05-10T17:28:14.495Z,4.60
2019-05-10T17:30:44.729Z,4.55
2019-05-10T17:33:10.928Z,4.35
2019-05-10T17:35:42.013Z,6.72
2019-05-10T17:38:07.731Z,4.60
2019-05-10T17:40:37.006Z,6.70
2019-05-10T17:43:05.479Z,6.18
2019-05-10T17:45:34.831Z,7.30
2019-05-10T17:48:06.791Z,6.68
2019-05-10T17:50:29.714Z,5.10
2019-05-10T17:52:57.879Z,4.93
2019-05-10T17:55:26.510Z,3.92
2019-05-10T17:57:56.527Z,8.77
2019-05-10T18:00:22.387Z,5.87
2019-05-10T18:02:50.555Z,5.65
2019-05-10T18:05:18.641Z,5.47
2019-05-10T18:07:46.457Z,5.87
2019-05-10T18:10:14.606Z,8.45
2019-05-10T18:12:42.347Z,6.50
2019-05-10T18:15:10.394Z,6.57
2019-05-10T18:17:38.774Z,4.12
2019-05-10T18:20:06.535Z,5.00
2019-05-10T18:22:41.772Z,6.35
2019-05-10T18:25:02.806Z,5.90
2019-05-10T18:27:30.595Z,8.07
2019-05-10T18:29:58.623Z,4.70
2019-05-10T18:32:29.163Z,5.00
2019-05-10T18:34:55.925Z,8.27
2019-05-10T18:37:23.963Z,6.47
2019-05-10T18:39:52.890Z,7.32
2019-05-10T18:42:25.299Z,6.68
2019-05-10T18:44:52.187Z,6.18
2019-05-10T18:47:16.963Z,5.55
2019-05-10T18:49:44.795Z,5.47
2019-05-10T18:52:12.611Z,7.22
2019-05-10T18:54:40.559Z,6.45
2019-05-10T18:57:12.246Z,5.25
2019-05-10T18:59:39.911Z,7.32
2019-05-10T19:02:05.001Z,4.68
2019-05-10T19:04:32.746Z,9.25
2019-05-10T19:07:09.562Z,7.50
2019-05-10T19:09:28.699Z,6.00
2019-05-10T19:11:56.743Z,7.47
2019-05-10T19:14:29.842Z,6.03
2019-05-10T19:16:53.495Z,6.03
2019-05-10T19:19:21.699Z,4.85
2019-05-10T19:21:49.879Z,5.72
2019-05-10T19:24:18.439Z,4.87
2019-05-10T19:26:46.531Z,5.57
2019-05-10T19:29:15.082Z,6.60
2019-05-10T19:31:43.254Z,7.87
2019-05-10T19:34:15.476Z,5.95
2019-05-10T19:36:39.556Z,7.25
2019-05-10T19:39:07.985Z,6.05
2019-05-10T19:41:35.878Z,7.87
2019-05-10T19:44:04.686Z,6.28
2019-05-10T19:46:39.325Z,7.18
2019-05-10T19:49:01.315Z,5.32
2019-05-10T19:51:29.151Z,8.27
2019-05-10T19:53:57.323Z,6.53
2019-05-10T19:56:30.195Z,8.18
2019-05-10T19:58:54.084Z,7.28
2019-05-10T20:01:23.610Z,7.07
2019-05-10T20:03:50.352Z,8.88
2019-05-10T20:06:18.428Z,7.90
2019-05-10T20:08:46.540Z,8.90
2019-05-10T20:11:14.392Z,9.70
2019-05-10T20:13:42.554Z,10.63
2019-05-10T20:16:10.662Z,6.37
2019-05-10T20:18:38.806Z,7.55
2019-05-10T20:21:06.866Z,5.78
2019-05-10T20:23:35.035Z,6.87
2019-05-10T20:26:03.138Z,8.98
2019-05-10T20:28:31.272Z,8.88
2019-05-10T20:30:59.994Z,10.52
2019-05-10T20:33:28.034Z,8.68
2019-05-10T20:35:56.227Z,10.20
2019-05-10T20:38:24.517Z,8.93
2019-05-10T20:40:52.651Z,7.32
2019-05-10T20:43:20.519Z,8.23
2019-05-10T20:45:48.623Z,11.40
2019-05-10T20:48:17.331Z,10.07
2019-05-10T20:50:45.459Z,9.30
2019-05-10T20:53:13.562Z,11.10
2019-05-10T20:55:41.824Z,8.40
2019-05-10T20:58:09.701Z,9.57
2019-05-10T21:00:37.775Z,11.32
2019-05-10T21:03:05.650Z,11.25
2019-05-10T21:05:34.011Z,9.05
2019-05-10T21:08:16.037Z,10.25
2019-05-10T21:10:30.761Z,13.35
2019-05-10T21:12:58.605Z,10.55
2019-05-10T21:15:26.699Z,8.43
2019-05-10T21:17:54.760Z,9.85
2019-05-10T21:20:22.994Z,16.70
2019-05-10T21:22:51.129Z,11.30
2019-05-10T21:25:19.032Z,11.30
2019-05-10T21:27:47.186Z,8.88
2019-05-10T21:30:16.042Z,9.43
2019-05-10T21:32:44.224Z,10.30
2019-05-10T21:35:12.395Z,8.90
2019-05-10T21:37:40.774Z,10.32
2019-05-10T21:40:08.949Z,6.70
2019-05-10T21:42:37.007Z,9.30
2019-05-10T21:45:05.240Z,9.68
2019-05-10T21:47:33.075Z,13.55
2019-05-10T21:50:01.748Z,11.63
2019-05-10T21:52:29.847Z,15.45
2019-05-10T21:54:57.995Z,14.68
2019-05-10T21:57:25.971Z,18.92
2019-05-10T21:59:54.401Z,11.65
2019-05-10T22:02:22.315Z,11.73
2019-05-10T22:04:50.641Z,13.30
2019-05-10T22:07:19.405Z,13.20
2019-05-10T22:09:47.530Z,13.88
2019-05-10T22:12:15.601Z,13.73
2019-05-10T22:14:43.686Z,17.08
2019-05-10T22:17:11.774Z,16.10
2019-05-10T22:19:39.932Z,16.23
2019-05-10T22:22:08.310Z,12.85
2019-05-10T22:24:36.087Z,17.25
2019-05-10T22:27:04.263Z,15.18
2019-05-10T22:29:32.508Z,13.23
2019-05-10T22:32:00.641Z,11.90
2019-05-10T22:34:28.642Z,11.75
2019-05-10T22:36:56.789Z,12.25
2019-05-10T22:39:24.953Z,15.25
2019-05-10T22:41:53.323Z,10.68
2019-05-10T22:44:21.019Z,11.93
2019-05-10T22:46:49.246Z,8.77
2019-05-10T22:49:17.329Z,13.38
2019-05-10T22:51:45.987Z,13.85
2019-05-10T22:54:14.194Z,10.05
2019-05-10T22:56:42.279Z,11.80
2019-05-10T22:59:10.891Z,12.20
2019-05-10T23:01:39.027Z,9.05
2019-05-10T23:04:07.182Z,9.93
2019-05-10T23:06:35.238Z,9.52
2019-05-10T23:09:03.369Z,9.20
2019-05-10T23:11:31.631Z,12.52
2019-05-10T23:13:59.858Z,8.48
2019-05-10T23:16:27.955Z,13.48
2019-05-10T23:18:56.724Z,11.18
2019-05-10T23:21:25.302Z,12.77
2019-05-10T23:23:53.987Z,10.50
2019-05-10T23:26:24.118Z,10.57
2019-05-10T23:28:50.345Z,7.00
2019-05-10T23:31:18.511Z,16.48
2019-05-10T23:33:46.573Z,12.77
2019-05-10T23:36:14.681Z,11.55
2019-05-10T23:38:42.519Z,8.63
2019-05-10T23:41:10.372Z,12.70
2019-05-10T23:43:38.484Z,11.40
2019-05-10T23:46:06.632Z,8.73
2019-05-10T23:48:34.065Z,13.65
2019-05-10T23:51:02.185Z,14.35
2019-05-10T23:53:31.015Z,8.20
2019-05-10T23:55:59.138Z,10.38
2019-05-10T23:58:27.319Z,9.63
